Terminal Aerodrome Forecast
Issued by NWS Sioux Falls, SD

Home | Current Version | Previous Version | Text Only | Print | Product List | Glossary On
Versions: 1 2 3 4 5 6 7 8 9 10 11 12 13 14 15 16 17 18 19
000
FTUS43 KFSD 012009 AAA
TAFHON
TAF AMD
KHON 012009Z 0120/0218 34016G23KT P6SM SCT025 BKN060
     FM012300 33010KT P6SM SCT060
     FM020300 VRB03KT P6SM SKC
     FM021300 16008KT P6SM SCT150=

USA.gov is the U.S. government's official web portal to all federal, state and local government web resources and services.